createdAt,value
2022-10-17T00:02:23.549Z,13.24
2022-10-17T00:05:26.224Z,13.11
2022-10-17T00:08:28.769Z,12.96
2022-10-17T00:11:31.315Z,12.85
2022-10-17T00:14:34.599Z,13.05
2022-10-17T00:17:38.835Z,13.65
2022-10-17T00:20:41.357Z,13.37
2022-10-17T00:23:43.853Z,13.49
2022-10-17T00:26:46.325Z,13.72
2022-10-17T00:29:49.933Z,13.99
2022-10-17T00:32:53.862Z,13.91
2022-10-17T00:36:04.587Z,13.93
2022-10-17T00:39:07.208Z,13.75
2022-10-17T00:42:12.243Z,14.22
2022-10-17T00:45:22.946Z,14.04
2022-10-17T00:48:27.015Z,13.79
2022-10-17T00:51:38.088Z,13.62
2022-10-17T00:54:45.371Z,13.83
2022-10-17T00:57:48.228Z,14.04
2022-10-17T01:00:50.723Z,13.79
2022-10-17T01:03:54.583Z,13.81
2022-10-17T01:06:57.052Z,13.83
2022-10-17T01:09:59.791Z,13.91
2022-10-17T01:13:12.369Z,14.05
2022-10-17T01:16:19.902Z,14.14
2022-10-17T01:19:43.917Z,14.20
2022-10-17T01:22:50.584Z,14.14
2022-10-17T01:25:58.499Z,14.20
2022-10-17T01:29:30.484Z,14.11
2022-10-17T01:32:40.205Z,14.01
2022-10-17T01:35:49.256Z,14.06
2022-10-17T01:38:58.333Z,14.29
2022-10-17T01:42:08.942Z,14.74
2022-10-17T01:45:16.718Z,15.05
2022-10-17T01:48:24.965Z,15.14
2022-10-17T01:51:31.861Z,14.93
2022-10-17T01:54:40.856Z,15.03
2022-10-17T01:57:47.279Z,14.53
2022-10-17T02:00:51.543Z,14.63
2022-10-17T02:03:59.188Z,14.43
2022-10-17T02:07:07.343Z,14.77
2022-10-17T02:10:16.872Z,14.55
2022-10-17T02:13:26.466Z,14.67
2022-10-17T02:16:37.012Z,14.43
2022-10-17T02:19:51.404Z,14.52
2022-10-17T02:22:59.508Z,14.80
2022-10-17T02:26:14.279Z,14.53
2022-10-17T02:29:20.136Z,14.51
2022-10-17T02:32:29.251Z,14.09
2022-10-17T02:35:37.404Z,14.03
2022-10-17T02:38:41.757Z,13.85
2022-10-17T02:41:45.446Z,13.67
2022-10-17T02:44:48.688Z,13.58
2022-10-17T02:47:57.527Z,13.58
2022-10-17T02:51:08.595Z,13.50
2022-10-17T02:54:17.392Z,13.48
2022-10-17T02:57:26.186Z,13.48
2022-10-17T06:06:14.558Z,15.88
2022-10-17T06:09:17.056Z,16.70
2022-10-17T06:12:19.555Z,17.24
2022-10-17T06:15:22.013Z,17.09
2022-10-17T06:18:24.508Z,18.11
2022-10-17T06:21:29.282Z,18.00
2022-10-17T06:24:31.760Z,18.03
2022-10-17T06:27:34.240Z,18.50
2022-10-17T06:30:39.007Z,19.65
2022-10-17T06:33:41.908Z,19.62
2022-10-17T06:36:45.728Z,20.05
2022-10-17T06:39:48.228Z,20.28
2022-10-17T06:42:50.710Z,20.33
2022-10-17T06:45:53.202Z,20.37
2022-10-17T06:48:55.706Z,20.55
2022-10-17T06:51:59.512Z,20.64
2022-10-17T06:58:09.733Z,20.35
2022-10-17T07:01:14.076Z,20.84
2022-10-17T07:04:16.565Z,20.49
2022-10-17T07:07:20.399Z,20.80
2022-10-17T07:10:22.974Z,20.69
2022-10-17T07:13:26.064Z,20.02
2022-10-17T07:16:28.732Z,20.37
2022-10-17T07:19:31.305Z,19.39
2022-10-17T07:22:35.256Z,20.09
2022-10-17T07:25:40.163Z,20.09
2022-10-17T07:28:44.923Z,20.34
2022-10-17T07:31:48.800Z,20.33
2022-10-17T07:34:51.260Z,20.67
2022-10-17T07:37:55.075Z,20.57
2022-10-17T07:40:58.308Z,20.69
2022-10-17T07:44:00.771Z,21.10
2022-10-17T07:47:03.373Z,20.98
2022-10-17T07:50:06.665Z,21.30
2022-10-17T07:56:12.981Z,21.67
2022-10-17T07:59:15.559Z,21.97
2022-10-17T08:02:23.461Z,22.82
2022-10-17T08:05:26.040Z,22.82
2022-10-17T08:08:30.247Z,23.04
2022-10-17T08:11:32.772Z,23.76
2022-10-17T08:14:35.458Z,23.85
2022-10-17T08:17:39.255Z,24.89
2022-10-17T08:20:42.059Z,24.64
2022-10-17T08:23:46.011Z,25.53
2022-10-17T08:26:51.667Z,23.50
2022-10-17T08:29:54.732Z,23.18
2022-10-17T08:32:57.248Z,23.17
2022-10-17T08:36:00.391Z,23.28
2022-10-17T08:39:04.865Z,23.79
2022-10-17T08:42:20.417Z,24.00
2022-10-17T08:45:30.572Z,24.68
2022-10-17T08:48:42.631Z,25.26
2022-10-17T08:51:52.874Z,25.35
2022-10-17T08:54:56.848Z,24.73
2022-10-17T08:57:59.342Z,25.12
2022-10-17T09:01:09.144Z,25.19
2022-10-17T09:04:39.313Z,25.42
2022-10-17T09:07:49.859Z,25.22
2022-10-17T09:10:58.670Z,25.26
2022-10-17T09:14:10.275Z,26.01
2022-10-17T09:17:17.556Z,27.09
2022-10-17T09:20:23.161Z,26.71
2022-10-17T09:23:28.931Z,27.01
2022-10-17T09:26:32.847Z,26.62
2022-10-17T09:29:38.033Z,26.68
2022-10-17T09:32:44.074Z,27.09
2022-10-17T09:35:47.719Z,27.48
2022-10-17T09:38:53.708Z,27.34
2022-10-17T09:41:59.909Z,27.27
2022-10-17T09:45:14.725Z,27.64
2022-10-17T09:48:24.099Z,28.01
2022-10-17T09:51:27.470Z,27.78
2022-10-17T09:54:42.471Z,28.94
2022-10-17T09:58:01.338Z,29.14
2022-10-17T10:01:21.118Z,29.07
2022-10-17T10:04:30.205Z,28.25
2022-10-17T10:07:38.983Z,28.76
2022-10-17T10:10:43.159Z,28.90
2022-10-17T10:13:49.120Z,29.29
2022-10-17T10:16:54.468Z,29.64
2022-10-17T10:19:57.412Z,29.21
2022-10-17T10:23:17.345Z,29.56
2022-10-17T10:26:23.877Z,30.06
2022-10-17T10:29:32.229Z,29.85
2022-10-17T10:32:37.744Z,29.35
2022-10-17T10:35:40.606Z,28.84
2022-10-17T10:38:43.405Z,28.33
2022-10-17T10:41:49.703Z,27.99
2022-10-17T10:44:55.836Z,28.74
2022-10-17T10:48:00.671Z,28.32
2022-10-17T10:51:08.957Z,28.47
2022-10-17T10:54:17.546Z,28.59
2022-10-17T10:57:25.317Z,28.91
2022-10-17T11:00:33.167Z,28.67
2022-10-17T11:03:42.304Z,28.68
2022-10-17T11:06:46.923Z,28.56
2022-10-17T11:09:54.131Z,28.27
2022-10-17T11:13:05.048Z,29.04
2022-10-17T11:16:19.790Z,29.01
2022-10-17T11:19:26.684Z,28.90
2022-10-17T11:22:33.120Z,28.90
2022-10-17T11:25:37.939Z,29.04
2022-10-17T11:28:40.481Z,29.26
2022-10-17T11:31:53.962Z,29.23
2022-10-17T11:35:01.873Z,29.48
2022-10-17T11:38:12.231Z,30.20
2022-10-17T11:41:19.943Z,29.90
2022-10-17T11:44:27.746Z,29.73
2022-10-17T11:47:39.213Z,29.37
2022-10-17T11:54:15.204Z,29.50
2022-10-17T11:57:42.681Z,29.27
2022-10-17T12:00:56.056Z,29.35
2022-10-17T12:04:13.763Z,29.04
2022-10-17T12:07:23.287Z,29.33
2022-10-17T12:10:40.017Z,29.38
2022-10-17T12:13:51.832Z,29.49
2022-10-17T12:16:54.654Z,29.48
2022-10-17T12:20:27.354Z,29.67
2022-10-17T12:23:32.651Z,29.71
2022-10-17T12:26:35.141Z,29.75
2022-10-17T12:29:37.634Z,30.35
2022-10-17T12:33:05.560Z,31.32
2022-10-17T12:36:46.002Z,30.69
2022-10-17T12:39:50.347Z,31.22
2022-10-17T12:42:52.860Z,30.94
2022-10-17T12:45:56.435Z,30.46
2022-10-17T12:49:21.554Z,30.87
2022-10-17T12:52:26.689Z,31.12
2022-10-17T12:55:30.652Z,30.75
2022-10-17T12:58:35.000Z,30.78
2022-10-17T13:01:39.845Z,32.09
2022-10-17T13:04:42.510Z,29.08
2022-10-17T13:07:47.971Z,31.07
2022-10-17T13:10:54.613Z,27.71
2022-10-17T13:14:00.045Z,28.35
2022-10-17T13:17:04.224Z,30.24
2022-10-17T13:20:25.452Z,30.64
2022-10-17T13:23:34.689Z,30.74
2022-10-17T13:26:38.524Z,28.43
2022-10-17T13:29:45.698Z,30.36
2022-10-17T13:32:48.236Z,29.76
2022-10-17T13:36:05.925Z,28.60
2022-10-17T13:39:12.424Z,29.29
2022-10-17T13:42:24.843Z,29.32
2022-10-17T13:45:30.647Z,32.05
2022-10-17T13:48:36.217Z,31.80
2022-10-17T13:51:38.811Z,30.05
2022-10-17T13:54:42.604Z,29.11
2022-10-17T13:57:47.172Z,28.41
2022-10-17T14:00:50.797Z,31.39
2022-10-17T14:04:07.140Z,31.69
2022-10-17T14:07:25.499Z,30.99
2022-10-17T14:10:37.692Z,31.90
2022-10-17T14:13:42.125Z,31.70
2022-10-17T14:16:45.434Z,31.34
2022-10-17T14:20:06.577Z,31.08
2022-10-17T14:23:31.149Z,30.96
2022-10-17T14:26:37.260Z,30.98
2022-10-17T14:29:54.117Z,30.76
2022-10-17T14:32:58.988Z,30.34
2022-10-17T14:36:03.621Z,30.25
2022-10-17T14:39:13.430Z,30.39
2022-10-17T14:42:20.588Z,30.12
2022-10-17T14:45:28.053Z,29.78
2022-10-17T14:48:32.067Z,29.16
2022-10-17T14:51:44.765Z,26.97
2022-10-17T14:54:59.027Z,26.62
2022-10-17T14:58:02.090Z,26.39
2022-10-17T15:01:06.079Z,26.34
2022-10-17T15:04:10.737Z,27.37
2022-10-17T15:07:17.514Z,26.23
2022-10-17T15:10:33.903Z,26.35
2022-10-17T15:13:41.203Z,26.61
2022-10-17T15:16:48.555Z,26.76
2022-10-17T15:19:51.283Z,27.05
2022-10-17T15:22:53.786Z,27.51
2022-10-17T15:25:56.299Z,27.56
2022-10-17T15:28:59.088Z,27.69
2022-10-17T15:32:02.948Z,27.82
2022-10-17T15:35:06.025Z,26.76
2022-10-17T15:38:09.785Z,26.92
2022-10-17T15:41:12.551Z,27.32
2022-10-17T15:44:15.404Z,27.14
2022-10-17T15:47:25.035Z,27.05
2022-10-17T15:50:28.991Z,26.72
2022-10-17T15:53:31.464Z,27.01
2022-10-17T15:56:36.988Z,26.04
2022-10-17T15:59:39.499Z,27.01
2022-10-17T16:02:43.703Z,25.72
2022-10-17T16:05:46.187Z,26.92
2022-10-17T16:08:49.469Z,27.22
2022-10-17T16:11:51.956Z,25.31
2022-10-17T16:14:54.517Z,27.00
2022-10-17T16:18:01.652Z,25.37
2022-10-17T16:21:06.859Z,24.96
2022-10-17T16:24:11.269Z,24.85
2022-10-17T16:27:13.804Z,24.61
2022-10-17T16:30:16.693Z,24.46
2022-10-17T16:33:20.499Z,24.39
2022-10-17T16:36:23.518Z,23.99
2022-10-17T16:42:33.375Z,23.96
2022-10-17T16:45:37.173Z,24.39
2022-10-17T16:51:48.362Z,23.85
2022-10-17T16:54:50.841Z,23.75
2022-10-17T16:57:53.375Z,23.41
2022-10-17T17:00:55.894Z,24.29
2022-10-17T17:04:00.086Z,23.55
2022-10-17T17:07:02.563Z,23.07
2022-10-17T17:10:06.288Z,23.14
2022-10-17T17:13:08.741Z,22.90
2022-10-17T17:16:13.003Z,22.82
2022-10-17T17:19:17.751Z,23.08
2022-10-17T17:22:20.225Z,23.24
2022-10-17T17:25:23.346Z,23.28
2022-10-17T17:28:27.072Z,23.63
2022-10-17T17:31:32.668Z,23.68
2022-10-17T17:34:38.037Z,23.63
2022-10-17T17:37:40.560Z,23.38
2022-10-17T17:40:50.741Z,23.17
2022-10-17T17:43:53.770Z,23.08
2022-10-17T17:46:56.202Z,23.03
2022-10-17T17:50:00.308Z,23.36
2022-10-17T17:53:02.779Z,24.84
2022-10-17T17:56:07.428Z,23.55
2022-10-17T17:59:12.566Z,23.13
2022-10-17T18:02:15.446Z,24.38
2022-10-17T18:05:19.481Z,24.90
2022-10-17T18:08:21.998Z,24.22
2022-10-17T18:11:24.594Z,23.06
2022-10-17T18:14:27.044Z,23.10
2022-10-17T18:17:29.513Z,23.93
2022-10-17T18:20:33.427Z,22.97
2022-10-17T18:23:37.714Z,23.00
2022-10-17T18:26:40.189Z,23.59
2022-10-17T18:29:42.729Z,23.77
2022-10-17T18:32:45.173Z,22.84
2022-10-17T18:35:49.018Z,23.74
2022-10-17T18:38:51.462Z,23.10
2022-10-17T18:41:53.894Z,22.93
2022-10-17T18:44:56.315Z,22.82
2022-10-17T18:47:58.757Z,23.08
2022-10-17T18:51:05.166Z,22.90
2022-10-17T18:54:12.180Z,22.97
2022-10-17T18:57:14.643Z,22.96
2022-10-17T19:00:17.493Z,23.51
2022-10-17T19:03:19.984Z,22.78
2022-10-17T19:06:26.048Z,23.16
2022-10-17T19:09:28.503Z,23.21
2022-10-17T19:12:30.949Z,23.35
2022-10-17T19:15:33.505Z,23.50
2022-10-17T19:18:36.838Z,23.50
2022-10-17T19:21:41.020Z,23.03
2022-10-17T19:24:43.551Z,22.93
2022-10-17T19:27:46.051Z,24.48
2022-10-17T19:30:48.502Z,23.04
2022-10-17T19:33:52.748Z,22.56
2022-10-17T19:36:56.653Z,22.69
2022-10-17T19:39:59.119Z,23.59
2022-10-17T19:43:01.570Z,23.31
2022-10-17T19:46:06.497Z,23.98
2022-10-17T19:49:08.956Z,24.11
2022-10-17T19:52:12.712Z,24.35
2022-10-17T19:55:15.193Z,24.39
2022-10-17T19:58:18.106Z,24.40
2022-10-17T20:01:25.249Z,24.52
2022-10-17T20:04:27.826Z,23.82
2022-10-17T20:07:31.603Z,24.24
2022-10-17T20:10:34.079Z,24.08
2022-10-17T20:13:37.847Z,24.32
2022-10-17T20:16:40.311Z,24.36
2022-10-17T20:19:43.016Z,23.86
2022-10-17T20:22:47.140Z,23.96
2022-10-17T20:26:01.036Z,23.88
2022-10-17T20:29:13.696Z,23.58
2022-10-17T20:32:16.167Z,23.61
2022-10-17T20:35:18.834Z,23.00
2022-10-17T20:38:22.571Z,22.10
2022-10-17T20:41:26.176Z,22.29
2022-10-17T20:44:28.632Z,22.90
2022-10-17T20:47:46.107Z,23.48
2022-10-17T20:50:51.743Z,22.26
2022-10-17T20:57:04.931Z,22.02
2022-10-17T21:00:08.697Z,22.20
2022-10-17T21:03:11.140Z,22.10
2022-10-17T21:06:13.674Z,22.40
2022-10-17T21:09:17.490Z,22.34
2022-10-17T21:12:30.881Z,22.14
2022-10-17T21:15:42.460Z,23.23
2022-10-17T21:18:47.441Z,22.26
2022-10-17T21:21:50.165Z,22.18
2022-10-17T21:24:53.943Z,21.98
2022-10-17T21:27:56.376Z,22.14
2022-10-17T21:31:11.391Z,22.12
2022-10-17T21:34:15.772Z,22.12
2022-10-17T21:37:18.275Z,21.83
2022-10-17T21:40:22.039Z,21.78
2022-10-17T21:43:24.912Z,21.65
2022-10-17T21:46:27.884Z,21.84
2022-10-17T21:49:30.488Z,22.29
2022-10-17T21:52:33.272Z,22.50
2022-10-17T21:55:38.613Z,22.87
2022-10-17T21:58:41.827Z,22.95
2022-10-17T22:01:46.706Z,23.12
2022-10-17T22:04:49.237Z,22.99
2022-10-17T22:07:51.701Z,22.76
2022-10-17T22:10:55.480Z,22.72
2022-10-17T22:14:00.241Z,22.44
2022-10-17T22:17:02.676Z,22.58
2022-10-17T22:20:05.764Z,22.55
2022-10-17T22:23:08.345Z,22.72
2022-10-17T22:26:12.941Z,22.72
2022-10-17T22:29:15.547Z,22.47
2022-10-17T22:32:21.521Z,22.80
2022-10-17T22:35:25.278Z,22.51
2022-10-17T22:38:28.108Z,22.50
2022-10-17T22:41:31.946Z,22.70
2022-10-17T22:44:34.389Z,21.88
2022-10-17T22:47:36.847Z,21.47
2022-10-17T22:50:42.534Z,21.50
2022-10-17T22:53:45.014Z,22.25
2022-10-17T22:56:48.803Z,22.48
2022-10-17T22:59:51.270Z,21.24
2022-10-17T23:02:54.640Z,21.91
2022-10-17T23:05:57.623Z,21.12
2022-10-17T23:09:00.220Z,21.20
2022-10-17T23:12:04.337Z,22.22
2022-10-17T23:15:07.675Z,21.90
2022-10-17T23:18:10.619Z,22.36
2022-10-17T23:21:13.181Z,22.58
2022-10-17T23:24:15.887Z,21.06
2022-10-17T23:27:19.691Z,20.87
2022-10-17T23:30:22.550Z,21.25
2022-10-17T23:33:26.096Z,20.81
2022-10-17T23:36:28.532Z,21.35
2022-10-17T23:39:30.991Z,21.68
2022-10-17T23:42:34.884Z,21.88
2022-10-17T23:45:37.463Z,21.91
2022-10-17T23:48:40.986Z,21.91
2022-10-17T23:51:43.430Z,21.26
2022-10-17T23:54:45.905Z,21.75
2022-10-17T23:57:49.672Z,21.84
